Time;durP1;ratioP1;P1;durP2;ratioP2;P2;SDS_P1;SDS_P2;PMS_P1;PMS_P2;Temp;Humidity;BMP_temperature;BMP_pressure;BME280_temperature;BME280_humidity;BME280_pressure;Samples;Min_cycle;Max_cycle;Signal;HPM_P1;HPM_P2
2021/07/21 00:00:17;;;;;;;0.00;0.00;;;;;;;20.61;57.00;102348.47;4919487;28;20051;-92
2021/07/21 00:03:04;;;;;;;1.10;1.08;;;;;;;20.68;56.78;102350.00;4976228;28;20034;-91
2021/07/21 00:05:53;;;;;;;0.10;0.10;;;;;;;20.58;56.89;102348.59;4978813;28;20066;-90
2021/07/21 00:08:27;;;;;;;0.35;0.35;;;;;;;20.60;56.78;102342.22;4987969;28;20046;-90
2021/07/21 00:14:01;;;;;;;0.88;0.88;;;;;;;20.61;57.09;102343.06;4973280;28;20445;-90
2021/07/21 00:16:42;;;;;;;1.15;1.00;;;;;;;20.59;57.03;102336.91;4975440;28;20073;-90
2021/07/21 00:22:01;;;;;;;0.17;0.17;;;;;;;20.55;56.41;102338.81;4977235;28;20042;-90
2021/07/21 00:24:40;;;;;;;0.10;0.10;;;;;;;20.58;56.87;102338.69;4977088;28;20058;-90
2021/07/21 00:27:13;;;;;;;0.10;0.10;;;;;;;20.52;56.74;102338.94;4976287;28;20548;-88
2021/07/21 00:29:42;;;;;;;;;;;;;;;20.63;56.45;102346.59;4976491;28;20138;-89
2021/07/21 00:32:21;;;;;;;0.15;0.15;;;;;;;20.46;56.91;102331.09;4977537;28;20277;-88
2021/07/21 00:35:06;;;;;;;0.10;0.10;;;;;;;20.49;57.09;102336.38;4978952;28;20053;-90
2021/07/21 00:37:58;;;;;;;0.10;0.10;;;;;;;20.47;56.63;102330.16;4983350;28;20129;-91
2021/07/21 00:40:35;;;;;;;0.03;0.03;;;;;;;20.41;56.57;102341.16;4996892;28;20034;-87
2021/07/21 00:43:08;;;;;;;0.10;0.10;;;;;;;20.36;56.63;102331.44;4991994;28;20406;-88
2021/07/21 00:45:41;;;;;;;0.15;0.15;;;;;;;20.34;57.04;102335.13;4996826;28;20018;-88
2021/07/21 00:48:07;;;;;;;0.10;0.10;;;;;;;20.32;56.72;102337.00;4994114;28;20377;-88
2021/07/21 00:50:37;;;;;;;1.25;0.57;;;;;;;20.29;57.17;102331.75;4987047;28;20636;-89
2021/07/21 00:53:09;;;;;;;0.65;0.65;;;;;;;20.28;56.90;102330.84;4982216;28;20423;-90
2021/07/21 00:55:44;;;;;;;0.10;0.10;;;;;;;20.28;56.82;102333.53;4981034;28;20030;-91
2021/07/21 00:58:14;;;;;;;0.25;0.25;;;;;;;20.24;57.18;102339.06;4985910;28;20037;-90
2021/07/21 01:00:43;;;;;;;0.35;0.35;;;;;;;20.23;57.12;102330.13;4986960;28;20097;-90
2021/07/21 01:03:09;;;;;;;0.77;0.77;;;;;;;20.20;57.22;102339.22;4987703;28;20030;-90
2021/07/21 01:05:45;;;;;;;0.30;0.25;;;;;;;20.22;57.29;102336.44;4987154;28;20037;-91
2021/07/21 01:08:17;;;;;;;0.63;0.20;;;;;;;20.19;57.43;102325.81;4987695;28;20041;-90
2021/07/21 01:10:51;;;;;;;0.93;0.63;;;;;;;20.17;57.38;102333.06;4984992;28;20035;-89
2021/07/21 01:14:36;;;;;;;0.10;0.10;;;;;;;20.24;56.77;102328.31;4979156;28;20035;-90
2021/07/21 01:17:36;;;;;;;4.45;1.00;;;;;;;20.14;57.15;102328.66;4960388;28;20042;-90
2021/07/21 01:20:52;;;;;;;0.32;0.32;;;;;;;20.16;56.77;102332.19;4969770;28;20521;-90
2021/07/21 01:49:38;;;;;;;0.10;0.10;;;;;;;19.87;57.09;102334.09;5275469;21;24831445;-91
2021/07/21 01:53:09;;;;;;;;;;;;;;;;;;;;;
2021/07/21 01:55:54;;;;;;;0.00;0.00;;;;;;;19.83;57.25;102328.91;6280034;22;20018;-91
2021/07/21 01:59:12;;;;;;;4.38;0.60;;;;;;;19.84;57.26;102336.03;6315197;22;20011;-90
2021/07/21 02:03:07;;;;;;;0.10;0.10;;;;;;;19.81;57.24;102331.63;6314531;22;20425;-90
2021/07/21 02:09:27;;;;;;;;;;;;;;;;;;;;;
2021/07/21 02:13:09;;;;;;;;;;;;;;;;;;;;;
2021/07/21 02:19:28;;;;;;;0.32;0.32;;;;;;;19.75;57.79;102342.59;6044407;23;20102;-90
2021/07/21 02:26:36;;;;;;;;;;;;;;;;;;;;;
2021/07/21 02:29:43;;;;;;;0.00;0.00;;;;;;;19.77;57.76;102340.72;6042039;23;20147;-91
2021/07/21 02:32:50;;;;;;;0.10;0.10;;;;;;;19.76;57.79;102344.31;5986414;23;20445;-92
2021/07/21 02:35:34;;;;;;;0.00;0.00;;;;;;;19.69;57.62;102342.81;6032893;23;20018;-90
2021/07/21 02:38:28;;;;;;;0.15;0.15;;;;;;;19.65;57.74;102333.97;6119111;23;20036;-90
2021/07/21 02:41:30;;;;;;;0.00;0.00;;;;;;;19.71;57.76;102339.13;6213375;23;20020;-90
2021/07/21 02:44:21;;;;;;;0.20;0.20;;;;;;;19.65;57.90;102335.75;6279510;22;20011;-89
2021/07/21 02:47:04;;;;;;;0.00;0.00;;;;;;;19.60;57.89;102338.63;6283727;22;20018;-90
2021/07/21 02:49:35;;;;;;;0.10;0.10;;;;;;;19.59;57.87;102344.94;6277858;22;20008;-91
2021/07/21 02:52:36;;;;;;;3.13;1.30;;;;;;;19.63;57.84;102343.88;6277172;22;20015;-90
2021/07/21 02:55:33;;;;;;;0.20;0.15;;;;;;;19.54;57.83;102346.91;6276582;22;20036;-92
2021/07/21 02:58:46;;;;;;;0.10;0.10;;;;;;;19.51;58.07;102349.66;6276318;22;20090;-91
2021/07/21 03:01:17;;;;;;;0.10;0.10;;;;;;;19.38;58.26;102349.22;6251984;22;20019;-87
2021/07/21 03:03:46;;;;;;;0.10;0.10;;;;;;;19.32;58.88;102346.72;6277091;22;20339;-88
2021/07/21 03:06:15;;;;;;;0.10;0.10;;;;;;;19.31;58.89;102347.66;6276641;22;20091;-88
2021/07/21 03:08:44;;;;;;;0.20;0.20;;;;;;;19.29;58.79;102350.41;6276986;22;20042;-90
2021/07/21 03:11:13;;;;;;;0.57;0.57;;;;;;;19.28;58.54;102348.63;6277032;22;20083;-89
2021/07/21 03:13:49;;;;;;;0.20;0.20;;;;;;;19.28;58.74;102343.25;6307713;22;20007;-89
2021/07/21 03:16:24;;;;;;;0.10;0.10;;;;;;;19.26;59.24;102350.47;6305679;22;20455;-89
2021/07/21 03:18:56;;;;;;;0.10;0.10;;;;;;;19.27;58.96;102351.38;6306723;22;20011;-90
2021/07/21 03:21:25;;;;;;;0.10;0.10;;;;;;;19.26;59.12;102350.47;6306886;22;20007;-90
2021/07/21 03:23:54;;;;;;;0.10;0.10;;;;;;;19.25;58.52;102359.47;6306749;22;20007;-89
2021/07/21 03:26:29;;;;;;;0.20;0.20;;;;;;;19.19;58.43;102356.97;6307737;22;20073;-89
2021/07/21 03:28:57;;;;;;;0.52;0.52;;;;;;;19.17;58.79;102359.72;6308392;22;20007;-89
2021/07/21 03:31:24;;;;;;;0.03;0.03;;;;;;;19.16;58.95;102363.34;6307784;22;20003;-89
2021/07/21 03:34:13;;;;;;;0.10;0.10;;;;;;;19.24;58.88;102361.28;6308222;22;20011;-89
2021/07/21 03:36:46;;;;;;;0.68;0.68;;;;;;;19.19;59.12;102362.34;6307915;22;20014;-89
2021/07/21 03:39:14;;;;;;;0.00;0.00;;;;;;;19.17;59.10;102364.22;6308116;22;20003;-89
2021/07/21 03:41:43;;;;;;;0.10;0.10;;;;;;;19.15;59.24;102361.59;6307786;22;20427;-90
2021/07/21 03:44:12;;;;;;;0.52;0.52;;;;;;;19.17;58.93;102358.84;6308571;22;20011;-90
2021/07/21 03:46:41;;;;;;;0.25;0.25;;;;;;;19.17;58.89;102356.16;6306799;22;20358;-88
2021/07/21 03:49:09;;;;;;;0.20;0.20;;;;;;;19.12;59.25;102353.63;6307374;22;20415;-89
2021/07/21 03:51:37;;;;;;;0.17;0.17;;;;;;;19.13;59.51;102357.19;6307533;22;20011;-90
2021/07/21 03:54:07;;;;;;;0.10;0.10;;;;;;;19.13;59.29;102350.00;6307431;22;20006;-89
2021/07/21 03:56:36;;;;;;;0.30;0.30;;;;;;;19.15;59.13;102352.63;6307486;22;20015;-89
2021/07/21 03:59:11;;;;;;;0.10;0.10;;;;;;;19.15;58.91;102358.00;6307696;22;20106;-89
2021/07/21 04:02:07;;;;;;;0.22;0.22;;;;;;;19.22;58.88;102354.22;6307506;22;20007;-90
2021/07/21 04:04:49;;;;;;;0.10;0.10;;;;;;;19.17;59.43;102358.84;6295939;22;20021;-90
2021/07/21 04:07:29;;;;;;;;;;;;;;;19.28;59.11;102358.47;6312995;22;20015;-90
2021/07/21 04:10:00;;;;;;;0.25;0.25;;;;;;;19.15;59.29;102356.22;6308874;22;19943;-90
2021/07/21 04:13:13;;;;;;;0.10;0.10;;;;;;;19.25;58.90;102359.47;6308838;22;20014;-89
2021/07/21 04:15:40;;;;;;;0.10;0.10;;;;;;;19.18;58.95;102357.94;6296681;22;20041;-90
2021/07/21 04:18:17;;;;;;;0.45;0.45;;;;;;;19.17;59.27;102358.84;6307405;22;20022;-89
2021/07/21 04:20:51;;;;;;;0.00;0.00;;;;;;;19.16;59.21;102362.47;6307904;22;20007;-89
2021/07/21 04:23:19;;;;;;;0.10;0.10;;;;;;;19.17;59.14;102353.47;6307507;22;20094;-89
2021/07/21 04:25:48;;;;;;;1.17;0.85;;;;;;;19.19;59.38;102354.28;6307218;22;20016;-89
2021/07/21 04:28:17;;;;;;;0.10;0.10;;;;;;;19.21;59.33;102363.19;6307235;22;20427;-89
2021/07/21 04:30:49;;;;;;;0.98;0.98;;;;;;;19.22;59.45;102365.81;6307414;22;20003;-90
2021/07/21 04:33:16;;;;;;;0.05;0.05;;;;;;;19.23;59.07;102366.72;6307546;22;20064;-89
2021/07/21 04:35:42;;;;;;;0.10;0.10;;;;;;;19.25;59.45;102364.84;6307396;22;20094;-89
2021/07/21 04:38:09;;;;;;;0.25;0.25;;;;;;;19.28;59.29;102367.44;6306845;22;20014;-90
2021/07/21 04:41:02;;;;;;;0.35;0.35;;;;;;;19.37;59.58;102371.63;6307247;22;20015;-89
2021/07/21 04:43:39;;;;;;;0.10;0.10;;;;;;;19.42;59.47;102371.50;6275967;22;20007;-90
2021/07/21 04:46:29;;;;;;;0.50;0.50;;;;;;;19.50;58.79;102372.09;6274936;22;20012;-89
2021/07/21 04:49:01;;;;;;;1.65;1.55;;;;;;;19.46;58.87;102378.53;6265181;22;20020;-89
2021/07/21 04:51:58;;;;;;;0.65;0.65;;;;;;;19.52;58.79;102379.19;6274298;22;20419;-90
2021/07/21 04:58:02;;;;;;;0.10;0.10;;;;;;;19.52;59.28;102383.69;6212243;23;20032;-92
2021/07/21 05:00:51;;;;;;;1.23;1.05;;;;;;;19.51;60.07;102387.31;6242721;22;20016;-91
2021/07/21 05:04:06;;;;;;;;;;;;;;;;;;;;;
2021/07/21 05:07:41;;;;;;;0.10;0.10;;;;;;;19.61;59.77;102396.81;6246556;22;20022;-92
2021/07/21 05:10:40;;;;;;;0.10;0.10;;;;;;;19.60;59.82;102403.16;6165720;23;20359;-92
2021/07/21 05:13:19;;;;;;;0.20;0.20;;;;;;;19.54;60.33;102403.34;6224767;22;20039;-90
2021/07/21 05:17:37;;;;;;;;;;;;;;;;;;;;;
2021/07/21 05:20:26;;;;;;;0.10;0.10;;;;;;;19.67;60.20;102409.19;6213940;22;20030;-90
2021/07/21 05:23:53;;;;;;;0.10;0.10;;;;;;;19.74;59.92;102413.44;6250290;22;20008;-90
2021/07/21 05:31:12;;;;;;;0.17;0.17;;;;;;;19.79;60.57;102424.00;6216192;22;20470;-90
2021/07/21 05:49:45;;;;;;;;;;;;;;;;;;;;;
2021/07/21 06:00:27;;;;;;;;;;;;;;;;;;;;;
2021/07/21 06:31:05;;;;;;;;;;;;;;;;;;;;;
2021/07/21 06:33:38;;;;;;;0.10;0.10;;;;;;;20.98;57.49;102450.31;6140916;23;20025;-89
2021/07/21 06:36:14;;;;;;;0.43;0.43;;;;;;;21.09;57.16;102454.44;6152314;23;20469;-90
2021/07/21 06:38:43;;;;;;;0.10;0.10;;;;;;;21.11;56.96;102458.81;6155035;23;20039;-91
2021/07/21 06:42:12;;;;;;;;;;;;;;;;;;;;;
2021/07/21 06:45:03;;;;;;;1.45;1.35;;;;;;;21.26;56.56;102454.66;6190491;23;20507;-90
2021/07/21 06:47:37;;;;;;;0.10;0.10;;;;;;;21.36;56.53;102460.56;6206393;23;20504;-90
2021/07/21 06:50:38;;;;;;;0.10;0.10;;;;;;;21.50;56.35;102463.56;6213501;23;20005;-91
2021/07/21 06:56:32;;;;;;;4.47;0.57;;;;;;;21.55;55.61;102470.59;6187804;23;20419;-88
2021/07/21 06:58:58;;;;;;;0.20;0.20;;;;;;;21.63;55.89;102479.28;6215374;23;20009;-85
2021/07/21 07:01:26;;;;;;;0.10;0.10;;;;;;;21.68;55.30;102476.41;6214325;23;20484;-86
2021/07/21 07:03:52;;;;;;;0.03;0.03;;;;;;;21.76;55.29;102474.28;6214930;23;20637;-85
2021/07/21 07:06:19;;;;;;;6.20;0.82;;;;;;;21.76;55.17;102466.19;6215620;23;20005;-86
2021/07/21 07:08:45;;;;;;;0.80;0.50;;;;;;;21.83;54.16;102475.75;6215012;23;20008;-85
2021/07/21 07:11:12;;;;;;;0.10;0.10;;;;;;;21.92;54.88;102475.38;6215245;23;20008;-84
2021/07/21 07:13:39;;;;;;;0.10;0.10;;;;;;;21.98;54.38;102477.81;6214896;23;20012;-84
2021/07/21 07:16:06;;;;;;;0.10;0.10;;;;;;;22.06;54.12;102484.72;6215150;23;20076;-84
2021/07/21 07:18:32;;;;;;;0.10;0.10;;;;;;;22.10;52.98;102483.63;6214677;23;20043;-85
2021/07/21 07:20:58;;;;;;;0.10;0.10;;;;;;;22.16;53.87;102485.19;6214860;23;20004;-84
2021/07/21 07:23:25;;;;;;;0.10;0.10;;;;;;;22.19;53.09;102488.63;6214743;23;20013;-82
2021/07/21 07:25:51;;;;;;;0.40;0.40;;;;;;;22.22;53.14;102480.41;6215092;23;20034;-83
2021/07/21 07:28:17;;;;;;;0.20;0.20;;;;;;;22.26;52.73;102483.88;6214561;23;20011;-81
2021/07/21 07:30:44;;;;;;;0.20;0.20;;;;;;;22.34;52.73;102487.09;6213782;23;20333;-84
2021/07/21 07:33:10;;;;;;;0.38;0.38;;;;;;;22.46;53.01;102491.13;6214089;23;20507;-85
2021/07/21 07:35:39;;;;;;;0.32;0.32;;;;;;;22.54;53.44;102486.25;6213816;23;20004;-84
2021/07/21 07:38:07;;;;;;;0.10;0.10;;;;;;;22.64;52.86;102488.53;6213140;23;20022;-84
2021/07/21 07:40:33;;;;;;;0.10;0.10;;;;;;;22.71;51.89;102479.22;6214489;23;20013;-83
2021/07/21 07:42:59;;;;;;;0.10;0.10;;;;;;;22.82;51.90;102487.72;6214692;23;20100;-84
2021/07/21 07:45:25;;;;;;;0.10;0.10;;;;;;;22.92;51.55;102489.03;6213571;23;20087;-87
2021/07/21 07:47:51;;;;;;;0.10;0.10;;;;;;;23.01;51.29;102485.03;6214323;23;20409;-84
2021/07/21 07:50:18;;;;;;;0.30;0.30;;;;;;;23.12;51.21;102489.94;6214765;23;20008;-84
2021/07/21 07:52:44;;;;;;;0.20;0.20;;;;;;;23.10;48.87;102489.13;6214588;23;20087;-84
2021/07/21 07:55:10;;;;;;;0.30;0.30;;;;;;;23.21;48.83;102486.81;6214001;23;20008;-84
2021/07/21 07:57:37;;;;;;;0.10;0.10;;;;;;;23.31;49.90;102484.53;6236540;23;20553;-84
2021/07/21 08:00:06;;;;;;;0.20;0.20;;;;;;;23.41;49.03;102485.00;6213171;23;20005;-84
2021/07/21 08:02:32;;;;;;;0.57;0.57;;;;;;;23.44;48.68;102484.84;6212198;23;20452;-84
2021/07/21 08:04:59;;;;;;;2.00;1.23;;;;;;;23.55;48.28;102482.50;6212282;23;20713;-84
2021/07/21 08:07:28;;;;;;;0.45;0.45;;;;;;;23.62;48.99;102484.91;6212468;23;20012;-85
2021/07/21 08:09:54;;;;;;;0.10;0.10;;;;;;;23.73;47.45;102479.84;6211578;23;20011;-84
2021/07/21 08:12:20;;;;;;;0.10;0.10;;;;;;;23.77;46.88;102481.41;6212540;23;20336;-85
2021/07/21 08:15:08;;;;;;;;;;;;;;;;;;;;;
2021/07/21 08:17:37;;;;;;;0.75;0.75;;;;;;;23.96;47.60;102483.25;6211003;23;20148;-85
2021/07/21 08:20:06;;;;;;;1.27;1.17;;;;;;;24.06;47.58;102473.69;6213352;23;20009;-84
2021/07/21 08:22:39;;;;;;;0.10;0.10;;;;;;;24.14;46.46;102473.28;6213709;23;20339;-85
2021/07/21 08:25:07;;;;;;;0.35;0.35;;;;;;;24.17;46.50;102484.84;6213817;23;20004;-87
2021/07/21 08:27:33;;;;;;;0.10;0.10;;;;;;;24.24;45.89;102474.56;6213485;23;20016;-86
2021/07/21 08:30:00;;;;;;;0.10;0.10;;;;;;;24.33;46.66;102478.63;6212852;23;20000;-87
2021/07/21 08:32:26;;;;;;;0.20;0.20;;;;;;;24.36;45.75;102483.88;6213590;23;20460;-86
2021/07/21 08:34:52;;;;;;;0.10;0.10;;;;;;;24.52;46.30;102479.41;6213117;23;20000;-87
2021/07/21 08:37:18;;;;;;;0.55;0.55;;;;;;;24.63;46.33;102483.38;6213331;23;20420;-86
2021/07/21 08:39:44;;;;;;;0.55;0.55;;;;;;;24.53;44.55;102481.16;6212942;23;20385;-86
2021/07/21 08:42:12;;;;;;;0.30;0.30;;;;;;;24.73;45.55;102486.50;6213044;23;20076;-86
2021/07/21 08:44:38;;;;;;;0.20;0.20;;;;;;;24.84;45.88;102489.50;6213318;23;20085;-86
2021/07/21 08:47:08;;;;;;;0.10;0.10;;;;;;;24.86;44.85;102485.75;6212719;23;20017;-85
2021/07/21 08:49:35;;;;;;;0.20;0.20;;;;;;;24.94;44.98;102487.16;6213459;23;20071;-86
2021/07/21 08:52:02;;;;;;;0.28;0.28;;;;;;;25.06;45.26;102482.88;6213616;23;20076;-86
2021/07/21 08:54:30;;;;;;;0.20;0.20;;;;;;;25.15;43.67;102487.81;6212785;23;20020;-86
2021/07/21 08:56:59;;;;;;;0.10;0.10;;;;;;;25.26;44.43;102479.06;6213573;23;20009;-86
2021/07/21 08:59:25;;;;;;;1.25;0.90;;;;;;;25.35;43.89;102490.25;6213884;23;20012;-86
2021/07/21 09:01:52;;;;;;;0.05;0.05;;;;;;;25.38;44.41;102489.25;6214098;23;20004;-86
2021/07/21 09:04:18;;;;;;;1.35;0.95;;;;;;;25.39;41.93;102485.56;6212815;23;20091;-87
2021/07/21 09:06:44;;;;;;;0.30;0.30;;;;;;;25.50;42.03;102485.81;6212783;23;20012;-86
2021/07/21 09:09:10;;;;;;;0.73;0.73;;;;;;;25.58;43.47;102487.22;6212195;23;20064;-86
2021/07/21 09:11:37;;;;;;;0.10;0.10;;;;;;;25.67;41.72;102483.97;6212124;23;20066;-87
2021/07/21 09:14:04;;;;;;;0.20;0.20;;;;;;;25.72;40.35;102479.16;6211073;23;20031;-87
2021/07/21 09:16:30;;;;;;;0.13;0.13;;;;;;;25.84;41.55;102483.00;6210699;23;20023;-87
2021/07/21 09:18:57;;;;;;;0.35;0.35;;;;;;;25.93;41.17;102481.56;6211636;23;20032;-89
2021/07/21 09:21:25;;;;;;;0.10;0.10;;;;;;;26.01;40.69;102482.00;6212811;23;20037;-88
2021/07/21 09:23:56;;;;;;;0.32;0.32;;;;;;;26.06;40.87;102485.34;6212636;23;20008;-88
2021/07/21 09:29:02;;;;;;;0.30;0.30;;;;;;;26.24;40.88;102482.47;5030932;28;20487;-86
2021/07/21 09:31:35;;;;;;;0.17;0.17;;;;;;;26.25;39.55;102489.66;5022135;28;20037;-90
2021/07/21 09:34:23;;;;;;;0.73;0.73;;;;;;;26.44;39.30;102484.84;5013814;28;20092;-87
2021/07/21 09:37:02;;;;;;;0.32;0.32;;;;;;;26.40;39.00;102491.44;5005756;28;20026;-86
2021/07/21 09:39:37;;;;;;;1.70;1.33;;;;;;;26.53;40.05;102485.25;5006070;28;20030;-87
2021/07/21 09:42:06;;;;;;;0.10;0.10;;;;;;;26.58;40.27;102486.72;5007527;28;20112;-87
2021/07/21 09:44:38;;;;;;;0.10;0.10;;;;;;;26.63;40.68;102483.69;5002239;28;20027;-86
2021/07/21 09:47:14;;;;;;;0.30;0.30;;;;;;;26.74;39.04;102480.34;5005675;28;20104;-87
2021/07/21 09:49:41;;;;;;;2.42;0.80;;;;;;;26.76;40.57;102478.41;5007022;28;20029;-87
2021/07/21 09:55:15;;;;;;;0.30;0.30;;;;;;;27.02;38.17;102474.03;5063383;28;20969;-87
2021/07/21 09:57:43;;;;;;;0.20;0.20;;;;;;;27.10;39.53;102471.69;5042868;28;20083;-87
2021/07/21 10:00:20;;;;;;;0.30;0.30;;;;;;;27.19;37.20;102474.78;5046519;28;20025;-86
2021/07/21 10:02:48;;;;;;;0.13;0.13;;;;;;;27.10;36.64;102474.41;5046130;28;20048;-86
2021/07/21 10:05:14;;;;;;;0.20;0.20;;;;;;;27.23;37.79;102470.91;5047707;28;20047;-86
2021/07/21 10:08:02;;;;;;;0.10;0.10;;;;;;;27.23;37.48;102476.34;5046306;28;20540;-86
2021/07/21 10:10:26;;;;;;;0.47;0.47;;;;;;;27.30;36.68;102472.22;5044335;28;20049;-86
2021/07/21 10:13:03;;;;;;;0.10;0.10;;;;;;;27.31;38.32;102479.41;5046309;28;20111;-87
2021/07/21 10:15:29;;;;;;;1.17;1.17;;;;;;;27.32;37.06;102480.31;5041274;28;20037;-87
2021/07/21 10:18:14;;;;;;;0.40;0.40;;;;;;;27.48;36.52;102472.00;5041346;28;20399;-86
2021/07/21 10:20:43;;;;;;;0.10;0.10;;;;;;;27.45;36.99;102475.81;5047125;28;20083;-86
2021/07/21 10:23:10;;;;;;;0.45;0.45;;;;;;;27.52;36.57;102473.56;5046274;28;20029;-87
2021/07/21 10:25:37;;;;;;;0.77;0.77;;;;;;;27.56;36.93;102472.38;5046669;28;20036;-87
2021/07/21 10:28:05;;;;;;;0.30;0.30;;;;;;;27.66;36.81;102476.22;5047457;28;20083;-86
2021/07/21 10:30:33;;;;;;;0.68;0.68;;;;;;;27.73;35.64;102472.13;5047792;28;20423;-87
2021/07/21 10:32:59;;;;;;;0.73;0.73;;;;;;;27.86;36.96;102463.97;5048694;28;20079;-87
2021/07/21 10:35:27;;;;;;;0.10;0.10;;;;;;;27.96;37.14;102469.66;5038990;28;20017;-87
2021/07/21 10:37:54;;;;;;;0.10;0.10;;;;;;;28.11;37.06;102459.59;5048560;28;20120;-87
2021/07/21 10:40:23;;;;;;;0.32;0.32;;;;;;;28.14;35.25;102461.22;5049077;28;20045;-88
2021/07/21 10:42:54;;;;;;;1.15;0.30;;;;;;;28.22;37.25;102462.44;5048939;28;20041;-87
2021/07/21 10:45:25;;;;;;;0.08;0.08;;;;;;;28.27;37.52;102455.81;5048749;28;20086;-87
2021/07/21 10:47:57;;;;;;;0.20;0.20;;;;;;;28.33;36.70;102461.69;5048524;28;20385;-87
2021/07/21 10:59:12;;;;;;;0.17;0.17;;;;;;;28.62;33.84;102455.16;5106136;27;20388;-86
2021/07/21 11:01:48;;;;;;;0.10;0.10;;;;;;;28.75;34.55;102457.91;5104494;28;20066;-87
2021/07/21 11:04:15;;;;;;;0.80;0.63;;;;;;;28.77;34.45;102458.69;5105481;28;20355;-87
2021/07/21 11:06:44;;;;;;;0.50;0.50;;;;;;;28.80;34.60;102464.78;5085583;28;20056;-87
2021/07/21 11:09:28;;;;;;;0.28;0.28;;;;;;;29.00;35.13;102460.59;5083610;28;20086;-86
2021/07/21 11:11:58;;;;;;;0.43;0.43;;;;;;;29.00;34.32;102459.75;5078710;28;20025;-88
2021/07/21 11:14:27;;;;;;;0.47;0.47;;;;;;;29.06;33.29;102453.84;5084784;28;20110;-88
2021/07/21 11:16:55;;;;;;;0.40;0.40;;;;;;;29.10;36.51;102449.88;5086494;28;20824;-87
2021/07/21 11:19:49;;;;;;;0.15;0.15;;;;;;;29.28;35.05;102444.91;5075688;28;20104;-86
2021/07/21 11:30:47;;;;;;;0.43;0.43;;;;;;;29.50;34.06;102446.91;5101845;27;20391;-86
2021/07/21 11:39:42;;;;;;;0.10;0.10;;;;;;;29.59;34.18;102444.50;5100662;27;20908;-82
2021/07/21 11:42:44;;;;;;;0.50;0.50;;;;;;;29.44;31.01;102444.66;5111726;28;20149;-88
2021/07/21 11:45:39;;;;;;;0.28;0.28;;;;;;;29.69;33.42;102438.19;5102409;28;20025;-85
2021/07/21 11:48:07;;;;;;;1.25;1.17;;;;;;;29.49;32.91;102447.03;5104721;28;20490;-91
2021/07/21 11:50:34;;;;;;;2.40;0.82;;;;;;;29.61;35.06;102443.38;5104712;28;20012;-92
2021/07/21 11:53:06;;;;;;;2.25;1.40;;;;;;;29.63;35.07;102435.91;5103648;28;20040;-92
2021/07/21 11:55:35;;;;;;;0.10;0.10;;;;;;;29.77;34.29;102434.88;5092732;28;20024;-93
2021/07/21 11:58:17;;;;;;;1.10;0.63;;;;;;;29.84;34.81;102438.00;5088592;28;20035;-88
2021/07/21 12:00:49;;;;;;;0.25;0.25;;;;;;;29.99;34.14;102434.09;5093234;28;20165;-88
2021/07/21 12:03:16;;;;;;;0.10;0.10;;;;;;;30.11;33.25;102432.28;5091084;28;20491;-90
2021/07/21 12:05:58;;;;;;;0.30;0.30;;;;;;;30.28;34.94;102430.94;5099484;28;20057;-91
2021/07/21 12:08:24;;;;;;;0.10;0.10;;;;;;;30.24;33.73;102434.91;5091524;28;20115;-90
2021/07/21 12:10:51;;;;;;;1.75;1.65;;;;;;;30.33;34.32;102422.38;5089925;28;20110;-89
2021/07/21 12:13:20;;;;;;;0.22;0.22;;;;;;;30.42;32.28;102432.59;5095975;28;20047;-90
2021/07/21 12:16:01;;;;;;;0.38;0.38;;;;;;;30.65;33.72;102424.41;5098796;28;20032;-93
2021/07/21 12:18:28;;;;;;;2.00;0.30;;;;;;;30.73;33.67;102426.50;5089564;28;20115;-91
2021/07/21 12:20:55;;;;;;;0.10;0.10;;;;;;;30.75;32.24;102424.53;5093126;28;20537;-89
2021/07/21 12:23:23;;;;;;;0.20;0.20;;;;;;;30.87;32.09;102434.47;5096134;28;20063;-89
2021/07/21 12:25:49;;;;;;;0.03;0.03;;;;;;;30.92;32.73;102423.16;5101467;28;20021;-90
2021/07/21 12:28:15;;;;;;;0.50;0.50;;;;;;;30.97;32.20;102424.50;5101809;28;20094;-87
2021/07/21 12:30:41;;;;;;;0.10;0.10;;;;;;;31.07;31.72;102421.06;5082154;28;20154;-89
2021/07/21 12:33:08;;;;;;;0.10;0.10;;;;;;;31.18;31.39;102429.25;5089192;28;20032;-86
2021/07/21 12:35:34;;;;;;;4.78;0.63;;;;;;;31.09;30.89;102430.00;5087429;28;20123;-87
2021/07/21 12:38:01;;;;;;;0.13;0.13;;;;;;;31.24;32.57;102423.25;5087559;28;20028;-86
2021/07/21 12:40:34;;;;;;;0.10;0.10;;;;;;;31.38;33.11;102422.09;5087143;28;20058;-88
2021/07/21 12:43:02;;;;;;;0.38;0.38;;;;;;;31.19;31.78;102420.03;5089354;28;20043;-87
2021/07/21 12:45:33;;;;;;;0.25;0.25;;;;;;;31.28;32.20;102427.47;5090342;28;20021;-88
2021/07/21 12:48:01;;;;;;;0.38;0.35;;;;;;;31.44;32.44;102423.41;5086351;28;20127;-87
2021/07/21 12:50:40;;;;;;;1.90;0.82;;;;;;;31.59;32.67;102422.13;5080470;28;20084;-88
2021/07/21 12:55:52;;;;;;;0.13;0.13;;;;;;;31.87;32.45;102429.88;5057309;27;20816;-89
2021/07/21 12:58:21;;;;;;;0.10;0.10;;;;;;;31.91;31.93;102421.22;5035504;28;20033;-89
2021/07/21 13:00:55;;;;;;;0.05;0.05;;;;;;;32.07;30.74;102423.50;5042870;28;20037;-89
2021/07/21 13:03:24;;;;;;;0.22;0.22;;;;;;;32.19;32.37;102416.13;5039710;28;20116;-88
2021/07/21 13:05:54;;;;;;;0.98;0.90;;;;;;;32.35;32.23;102417.50;5039354;28;20476;-88
2021/07/21 13:08:26;;;;;;;0.10;0.10;;;;;;;32.22;31.20;102413.09;5037523;28;20396;-88
2021/07/21 13:11:14;;;;;;;0.30;0.30;;;;;;;32.40;29.91;102415.22;5039550;28;20112;-89
2021/07/21 13:16:40;;;;;;;0.25;0.25;;;;;;;32.39;31.81;102406.13;5050999;27;20447;-90
2021/07/21 13:19:09;;;;;;;0.35;0.35;;;;;;;32.29;31.47;102415.28;5056434;28;20722;-88
2021/07/21 13:21:39;;;;;;;0.55;0.55;;;;;;;32.07;31.42;102411.69;5055297;28;20123;-88
2021/07/21 13:26:57;;;;;;;0.35;0.35;;;;;;;31.70;32.44;102412.13;5059289;28;20907;-88
2021/07/21 13:29:27;;;;;;;0.00;0.00;;;;;;;31.64;31.92;102409.94;5063033;28;20094;-88
2021/07/21 13:31:54;;;;;;;0.82;0.47;;;;;;;31.83;33.07;102412.81;5051325;28;20041;-87
2021/07/21 13:37:05;;;;;;;0.47;0.47;;;;;;;32.30;31.78;102408.81;5063040;28;20862;-89
2021/07/21 13:39:42;;;;;;;0.80;0.80;;;;;;;32.62;31.09;102410.56;5034581;28;20447;-90
2021/07/21 13:42:19;;;;;;;1.77;0.22;;;;;;;32.84;30.43;102412.25;5032131;28;20514;-88
2021/07/21 13:45:08;;;;;;;0.70;0.52;;;;;;;33.02;30.44;102398.72;5037162;28;20485;-89
2021/07/21 13:47:39;;;;;;;0.45;0.45;;;;;;;33.02;28.61;102404.19;5039102;28;20499;-89
2021/07/21 13:50:15;;;;;;;0.10;0.10;;;;;;;33.18;30.10;102401.75;5040321;28;20477;-88
2021/07/21 13:52:41;;;;;;;0.10;0.10;;;;;;;33.29;29.49;102410.94;5040225;28;20052;-88
2021/07/21 13:55:08;;;;;;;0.38;0.38;;;;;;;33.13;29.01;102405.97;5042016;28;20037;-88
2021/07/21 13:57:37;;;;;;;0.93;0.57;;;;;;;33.25;29.68;102409.44;5037463;28;20033;-89
2021/07/21 14:00:04;;;;;;;0.43;0.43;;;;;;;33.19;30.03;102394.41;5038788;28;20108;-88
2021/07/21 14:02:32;;;;;;;0.65;0.28;;;;;;;33.17;29.65;102396.41;5041739;28;20067;-89
2021/07/21 14:05:02;;;;;;;0.03;0.03;;;;;;;33.07;29.68;102401.88;5038760;28;20029;-89
2021/07/21 14:07:31;;;;;;;0.70;0.70;;;;;;;32.99;29.53;102399.00;5033878;28;20117;-89
2021/07/21 14:10:00;;;;;;;0.10;0.10;;;;;;;32.71;30.23;102396.88;5031280;28;20037;-89
2021/07/21 14:12:29;;;;;;;2.38;0.40;;;;;;;32.48;30.70;102398.94;5032925;28;20021;-89
2021/07/21 14:14:55;;;;;;;0.28;0.28;;;;;;;32.28;31.54;102400.72;5042807;28;20444;-88
2021/07/21 14:17:22;;;;;;;0.28;0.28;;;;;;;32.17;31.24;102398.91;5041170;28;20039;-89
2021/07/21 14:19:48;;;;;;;0.65;0.65;;;;;;;32.19;31.70;102391.44;5042331;28;20034;-90
2021/07/21 14:22:14;;;;;;;0.10;0.10;;;;;;;32.13;30.46;102397.44;5040070;28;20051;-89
2021/07/21 14:24:43;;;;;;;1.30;1.25;;;;;;;31.93;31.70;102386.34;5041036;28;20036;-91
2021/07/21 14:27:10;;;;;;;0.43;0.43;;;;;;;31.83;32.84;102396.38;5042529;28;20499;-90
2021/07/21 14:29:36;;;;;;;1.42;1.33;;;;;;;31.86;32.46;102396.09;5032979;28;20107;-89
2021/07/21 14:32:02;;;;;;;0.28;0.28;;;;;;;32.03;31.46;102391.91;5033147;28;20030;-89
2021/07/21 14:34:28;;;;;;;4.43;0.98;;;;;;;32.13;30.68;102385.59;5031485;28;20030;-90
2021/07/21 14:36:55;;;;;;;0.15;0.15;;;;;;;32.08;31.50;102386.00;5034365;28;20030;-90
2021/07/21 14:39:23;;;;;;;0.05;0.05;;;;;;;32.18;31.88;102392.41;5035526;28;20069;-90
2021/07/21 14:41:51;;;;;;;0.15;0.15;;;;;;;32.01;30.52;102390.28;5039533;28;20060;-89
2021/07/21 14:44:27;;;;;;;0.20;0.20;;;;;;;32.00;31.75;102392.19;5036218;28;20025;-89